Terminal Aerodrome Forecast
Issued by NWS New Orleans/Baton Rouge, LA

Home | Current Version | Previous Version | Text Only | Print | Product List | Glossary On
Versions: 1 2 3 4 5 6 7 8 9 10 11 12 13 14 15 16 17 18 19 20 21
000
FTUS44 KLIX 282324
TAFBTR
TAF
KBTR 282324Z 2900/2924 13008KT P6SM VCSH SCT035 BKN100
     FM290100 13007KT P6SM SCT050 BKN110
     FM290600 16007KT P6SM BKN015
     FM291000 13006KT 4SM BR BKN005
     FM291500 14011KT P6SM BKN015
     FM291630 15012KT P6SM BKN035=

USA.gov is the U.S. government's official web portal to all federal, state and local government web resources and services.